Time;durP1;ratioP1;P1;durP2;ratioP2;P2;SDS_P1;SDS_P2;PMS_P1;PMS_P2;Temp;Humidity;BMP_temperature;BMP_pressure;BME280_temperature;BME280_humidity;BME280_pressure;Samples;Min_cycle;Max_cycle;Signal;HPM_P1;HPM_P2
2022/08/01 00:00:36;;;;;;;5.32;4.32;;;;;;;21.03;59.82;100577.69;5077270;28;20107;-26
2022/08/01 00:03:03;;;;;;;4.63;4.28;;;;;;;21.03;60.29;100575.00;5057601;28;20032;-26
2022/08/01 00:05:29;;;;;;;4.75;4.35;;;;;;;21.00;60.23;100580.53;5044312;28;20016;-26
2022/08/01 00:07:55;;;;;;;5.30;4.80;;;;;;;20.95;60.29;100586.16;5058555;28;20078;-26
2022/08/01 00:10:21;;;;;;;4.10;3.80;;;;;;;20.95;60.36;100596.88;5075887;28;20422;-26
2022/08/01 00:12:47;;;;;;;4.30;3.88;;;;;;;20.91;60.35;100584.59;5058723;28;20550;-26
2022/08/01 00:15:15;;;;;;;3.40;3.20;;;;;;;20.90;59.84;100593.56;5076077;28;20066;-26
2022/08/01 00:17:41;;;;;;;4.53;4.00;;;;;;;20.87;59.63;100591.88;5058476;28;20474;-26
2022/08/01 00:20:09;;;;;;;4.25;3.95;;;;;;;20.86;59.69;100587.47;5064094;28;20027;-26
2022/08/01 00:22:35;;;;;;;4.35;4.05;;;;;;;20.85;59.60;100583.06;5075219;28;20036;-26
2022/08/01 00:25:00;;;;;;;3.97;3.60;;;;;;;20.83;59.66;100586.75;5044863;28;20024;-26
2022/08/01 00:27:26;;;;;;;4.13;3.83;;;;;;;20.81;59.67;100576.13;5092202;28;20472;-26
2022/08/01 00:29:51;;;;;;;3.50;3.20;;;;;;;20.79;59.71;100580.72;5058790;28;20024;-27
2022/08/01 00:32:18;;;;;;;4.75;4.35;;;;;;;20.76;59.78;100575.50;5076871;28;20031;-26
2022/08/01 00:34:43;;;;;;;4.03;3.72;;;;;;;20.74;59.78;100567.56;5041778;28;20031;-26
2022/08/01 00:37:08;;;;;;;4.50;4.10;;;;;;;20.73;59.52;100567.63;5076662;28;20116;-26
2022/08/01 00:39:34;;;;;;;4.93;3.53;;;;;;;20.69;59.88;100566.94;5057998;28;20048;-26
2022/08/01 00:42:05;;;;;;;4.43;3.42;;;;;;;20.67;60.03;100574.19;5075793;28;20051;-26
2022/08/01 00:44:30;;;;;;;3.85;3.47;;;;;;;20.67;60.21;100562.63;5053717;28;20024;-26
2022/08/01 00:46:55;;;;;;;4.03;3.72;;;;;;;20.67;59.96;100570.66;5070912;28;20036;-26
2022/08/01 00:49:21;;;;;;;4.13;3.83;;;;;;;20.60;60.11;100568.28;5076375;28;20384;-26
2022/08/01 00:51:47;;;;;;;3.90;3.60;;;;;;;20.60;60.20;100565.63;5041137;28;20052;-26
2022/08/01 00:54:12;;;;;;;4.10;3.80;;;;;;;20.57;60.07;100559.56;5058424;28;20035;-26
2022/08/01 00:56:39;;;;;;;3.92;3.63;;;;;;;20.59;60.11;100563.03;5075780;28;20021;-26
2022/08/01 00:59:05;;;;;;;3.88;3.58;;;;;;;20.56;60.32;100556.03;5044879;28;20475;-26
2022/08/01 01:01:32;;;;;;;4.43;4.03;;;;;;;20.54;60.02;100555.22;5079921;28;20361;-26
2022/08/01 01:03:59;;;;;;;3.90;3.60;;;;;;;20.53;59.83;100556.19;5063346;28;20395;-26
2022/08/01 01:06:45;;;;;;;4.13;3.83;;;;;;;20.52;60.08;100554.44;5069256;28;20021;-26
2022/08/01 01:09:21;;;;;;;4.13;3.80;;;;;;;20.50;60.12;100548.28;5064010;28;20024;-26
2022/08/01 01:12:08;;;;;;;4.03;3.72;;;;;;;20.50;59.70;100553.66;5081584;28;20377;-26
2022/08/01 01:14:39;;;;;;;4.28;3.88;;;;;;;20.48;59.98;100558.25;5060748;28;20040;-26
2022/08/01 01:17:07;;;;;;;3.90;3.58;;;;;;;20.44;60.38;100549.47;5063242;28;20036;-26
2022/08/01 01:19:34;;;;;;;4.50;4.00;;;;;;;20.42;60.35;100555.88;5062080;28;20055;-26
2022/08/01 01:22:22;;;;;;;4.38;3.95;;;;;;;20.37;60.47;100554.31;5079952;28;20112;-26
2022/08/01 01:25:09;;;;;;;5.00;4.60;;;;;;;20.34;60.54;100556.28;5080200;28;20167;-26
2022/08/01 01:28:12;;;;;;;4.80;4.40;;;;;;;20.30;60.80;100562.75;5056801;28;20020;-26
2022/08/01 01:30:41;;;;;;;6.05;4.47;;;;;;;20.24;61.04;100562.09;5057693;28;20040;-26
2022/08/01 01:33:09;;;;;;;3.83;3.58;;;;;;;20.19;60.96;100565.97;5058765;28;20040;-26
2022/08/01 01:35:37;;;;;;;9.20;4.60;;;;;;;20.20;61.03;100567.69;5061609;28;20020;-26
2022/08/01 01:38:36;;;;;;;3.97;3.67;;;;;;;20.18;60.86;100569.59;5049320;28;20024;-26
2022/08/01 01:41:03;;;;;;;4.78;4.38;;;;;;;20.16;61.15;100563.44;5047457;28;20029;-26
2022/08/01 01:43:29;;;;;;;4.47;4.07;;;;;;;20.10;61.25;100568.19;5072622;28;20044;-26
2022/08/01 01:45:55;;;;;;;3.80;3.60;;;;;;;20.09;61.13;100566.47;5049075;28;20459;-26
2022/08/01 01:48:25;;;;;;;4.25;3.95;;;;;;;20.08;61.25;100563.84;5083219;28;20021;-26
2022/08/01 01:50:53;;;;;;;4.05;3.72;;;;;;;20.06;61.11;100558.56;5079895;28;20119;-27
2022/08/01 01:53:21;;;;;;;3.65;3.35;;;;;;;20.07;61.04;100556.78;5040917;28;20096;-27
2022/08/01 01:55:50;;;;;;;4.30;4.00;;;;;;;20.03;61.14;100556.06;5060823;28;20021;-27
2022/08/01 01:58:17;;;;;;;4.20;3.83;;;;;;;20.02;61.04;100557.00;5046802;28;20020;-28
2022/08/01 02:00:44;;;;;;;4.00;3.70;;;;;;;20.02;60.87;100548.09;5063893;28;20027;-27
2022/08/01 02:03:11;;;;;;;3.90;3.70;;;;;;;20.05;60.95;100553.28;5063734;28;20044;-27
2022/08/01 02:05:37;;;;;;;4.07;3.67;;;;;;;20.02;61.11;100554.31;5059957;28;20017;-27
2022/08/01 02:08:04;;;;;;;3.42;3.22;;;;;;;20.04;60.55;100555.09;5080240;28;20032;-27
2022/08/01 02:10:31;;;;;;;4.95;4.07;;;;;;;20.04;60.62;100549.75;5060974;28;20025;-27
2022/08/01 02:12:58;;;;;;;4.07;3.78;;;;;;;20.02;60.81;100548.09;5080284;28;20112;-27
2022/08/01 02:15:23;;;;;;;3.67;3.38;;;;;;;20.01;61.13;100544.56;5081486;28;20028;-27
2022/08/01 02:17:49;;;;;;;3.92;3.58;;;;;;;19.99;60.87;100546.41;5063572;28;20033;-27
2022/08/01 02:20:16;;;;;;;3.78;3.47;;;;;;;19.99;61.03;100555.34;5064145;28;20103;-27
2022/08/01 02:22:48;;;;;;;3.85;3.55;;;;;;;20.01;61.44;100557.97;5063548;28;20503;-28
2022/08/01 02:25:33;;;;;;;3.65;3.35;;;;;;;19.98;61.39;100552.72;5056483;28;20066;-27
2022/08/01 02:28:04;;;;;;;3.60;3.30;;;;;;;19.96;61.39;100550.13;5077453;28;20033;-27
2022/08/01 02:30:34;;;;;;;3.85;3.50;;;;;;;19.95;61.36;100548.41;5075460;28;20077;-27
2022/08/01 02:33:07;;;;;;;3.55;3.33;;;;;;;19.94;61.33;100560.03;5077757;28;20021;-27
2022/08/01 02:35:38;;;;;;;3.65;3.30;;;;;;;19.93;61.13;100562.78;5069066;28;20048;-28
2022/08/01 02:38:06;;;;;;;3.80;3.50;;;;;;;19.92;61.53;100563.72;5057970;28;20082;-27
2022/08/01 02:40:33;;;;;;;3.63;3.33;;;;;;;19.91;61.55;100556.66;5033381;28;20036;-27
2022/08/01 02:43:00;;;;;;;3.45;3.20;;;;;;;19.92;61.36;100558.38;5085456;28;20025;-27
2022/08/01 02:45:26;;;;;;;3.13;2.92;;;;;;;19.92;61.27;100561.03;5063736;28;20043;-27
2022/08/01 02:47:59;;;;;;;3.92;3.65;;;;;;;19.91;61.23;100562.00;5060502;28;20031;-27
2022/08/01 02:50:25;;;;;;;3.60;3.30;;;;;;;19.90;61.26;100570.97;5057994;28;20033;-27
2022/08/01 02:52:55;;;;;;;3.67;3.38;;;;;;;19.88;61.42;100574.56;5059359;28;20026;-27
2022/08/01 02:55:22;;;;;;;3.97;3.58;;;;;;;19.87;61.42;100563.94;5051370;28;20036;-27
2022/08/01 02:57:49;;;;;;;3.40;3.20;;;;;;;19.88;61.35;100565.69;5076938;28;20067;-27
2022/08/01 03:00:15;;;;;;;3.25;3.05;;;;;;;19.87;61.52;100567.50;5078395;28;20115;-27
2022/08/01 03:02:44;;;;;;;4.15;3.78;;;;;;;19.88;61.32;100569.22;5067485;28;20439;-27
2022/08/01 03:05:10;;;;;;;4.13;3.83;;;;;;;19.91;61.29;100572.69;5079141;28;20050;-27
2022/08/01 03:07:36;;;;;;;3.80;3.42;;;;;;;19.91;61.21;100580.72;5079305;28;20083;-27
2022/08/01 03:10:01;;;;;;;3.95;3.65;;;;;;;19.90;61.31;100573.66;5079899;28;20492;-28
2022/08/01 03:12:29;;;;;;;3.63;3.42;;;;;;;19.88;61.28;100566.53;5061798;28;20031;-28
2022/08/01 03:14:56;;;;;;;3.83;3.53;;;;;;;19.87;61.41;100575.53;5040730;28;20032;-28
2022/08/01 03:17:24;;;;;;;3.83;3.53;;;;;;;19.92;61.04;100585.13;5063943;28;20032;-27
2022/08/01 03:19:51;;;;;;;3.88;3.58;;;;;;;19.91;61.37;100586.94;5078300;28;20396;-28
2022/08/01 03:22:18;;;;;;;3.35;3.15;;;;;;;19.92;61.19;100587.81;5061365;28;20031;-27
2022/08/01 03:24:48;;;;;;;3.67;3.38;;;;;;;19.92;61.51;100587.81;5080545;28;20017;-28
2022/08/01 03:27:15;;;;;;;3.85;3.42;;;;;;;19.91;61.18;100583.41;5078200;28;20035;-28
2022/08/01 03:29:41;;;;;;;3.88;3.33;;;;;;;19.90;61.21;100592.38;5059944;28;20028;-28
2022/08/01 03:32:07;;;;;;;4.25;3.20;;;;;;;19.92;61.22;100590.50;5055557;28;20390;-28
2022/08/01 03:34:33;;;;;;;3.83;3.38;;;;;;;19.92;61.15;100590.50;5054119;28;20036;-28
2022/08/01 03:37:02;;;;;;;3.35;3.13;;;;;;;19.92;61.33;100604.75;5054142;28;20028;-27
2022/08/01 03:39:31;;;;;;;3.83;3.42;;;;;;;19.94;61.75;100594.81;5054530;28;20020;-28
2022/08/01 03:42:00;;;;;;;5.25;3.05;;;;;;;19.95;62.17;100595.69;5048172;28;20027;-28
2022/08/01 03:44:28;;;;;;;3.42;3.13;;;;;;;19.92;61.98;100603.88;5039513;28;20024;-28
2022/08/01 03:47:00;;;;;;;3.53;3.30;;;;;;;19.89;61.35;100591.50;5055922;28;20017;-28
2022/08/01 03:49:30;;;;;;;3.45;3.25;;;;;;;19.90;61.04;100592.38;5070641;28;20574;-28
2022/08/01 03:51:56;;;;;;;3.20;3.00;;;;;;;19.93;60.86;100594.88;5065940;28;20035;-28
2022/08/01 03:54:24;;;;;;;3.08;2.85;;;;;;;19.93;61.25;100598.44;5049158;28;20029;-28
2022/08/01 03:56:51;;;;;;;2.72;2.53;;;;;;;19.93;61.09;100589.53;5042903;28;20119;-27
2022/08/01 03:59:17;;;;;;;3.03;2.83;;;;;;;19.90;61.53;100592.38;5072023;28;20512;-28
2022/08/01 04:01:43;;;;;;;4.13;2.80;;;;;;;19.90;61.27;100587.03;5037385;28;20036;-28
2022/08/01 04:04:09;;;;;;;2.95;2.75;;;;;;;19.90;61.29;100587.03;5054363;28;20099;-28
2022/08/01 04:06:37;;;;;;;3.13;2.70;;;;;;;19.90;61.38;100601.25;5060017;28;20056;-28
2022/08/01 04:09:03;;;;;;;3.20;3.00;;;;;;;19.90;61.04;100593.25;5070850;28;20024;-28
2022/08/01 04:11:28;;;;;;;2.83;2.63;;;;;;;19.91;61.30;100604.81;5066775;28;20021;-28
2022/08/01 04:13:54;;;;;;;3.45;3.20;;;;;;;19.91;61.16;100594.97;5053316;28;20034;-27
2022/08/01 04:16:20;;;;;;;2.75;2.58;;;;;;;19.88;61.20;100596.00;5071062;28;20435;-28
2022/08/01 04:18:46;;;;;;;3.00;2.80;;;;;;;19.93;61.59;100595.75;5070241;28;20025;-28
2022/08/01 04:21:11;;;;;;;2.90;2.70;;;;;;;19.93;61.35;100592.22;5057714;28;20111;-28
2022/08/01 04:23:38;;;;;;;3.28;2.90;;;;;;;19.94;61.19;100594.81;5071119;28;20021;-28
2022/08/01 04:26:04;;;;;;;4.72;2.70;;;;;;;19.95;61.87;100598.38;5049954;28;20032;-27
2022/08/01 04:28:31;;;;;;;2.92;2.50;;;;;;;19.96;61.65;100595.63;5055696;28;20465;-27
2022/08/01 04:30:58;;;;;;;5.22;3.08;;;;;;;19.92;61.39;100590.50;5033314;28;20036;-28
2022/08/01 04:33:25;;;;;;;2.95;2.75;;;;;;;19.94;61.34;100597.50;5061716;28;20447;-28
2022/08/01 04:35:50;;;;;;;3.55;2.65;;;;;;;19.99;62.23;100594.59;5045643;28;20642;-27
2022/08/01 04:38:20;;;;;;;2.65;2.45;;;;;;;19.97;61.58;100609.84;5051260;28;20024;-28
2022/08/01 04:40:46;;;;;;;3.10;2.57;;;;;;;19.97;62.33;100613.41;5064432;28;20029;-28
2022/08/01 04:43:12;;;;;;;2.75;2.53;;;;;;;20.04;61.42;100614.00;5053259;28;20654;-28
2022/08/01 04:45:38;;;;;;;2.75;2.55;;;;;;;20.00;62.08;100618.63;5067608;28;20036;-27
2022/08/01 04:48:06;;;;;;;2.67;2.47;;;;;;;20.03;62.29;100612.25;5051693;28;20067;-27
2022/08/01 04:50:32;;;;;;;2.65;2.45;;;;;;;20.02;61.94;100621.25;5068731;28;20020;-27
2022/08/01 04:52:57;;;;;;;2.63;2.42;;;;;;;20.05;61.46;100623.78;5069318;28;20108;-28
2022/08/01 04:55:22;;;;;;;2.90;2.15;;;;;;;20.01;62.09;100624.88;5067351;28;20039;-28
2022/08/01 04:57:48;;;;;;;2.28;2.17;;;;;;;20.00;62.39;100620.44;5068249;28;20027;-28
2022/08/01 05:00:16;;;;;;;2.20;2.05;;;;;;;20.05;62.54;100623.78;5065190;28;20071;-27
2022/08/01 05:02:41;;;;;;;2.70;2.33;;;;;;;20.10;61.82;100620.84;5062101;28;20031;-28
2022/08/01 05:05:07;;;;;;;2.47;2.28;;;;;;;20.14;62.12;100617.06;5062663;28;20020;-27
2022/08/01 05:07:33;;;;;;;2.47;2.17;;;;;;;20.15;62.82;100617.94;5069562;28;20507;-28
2022/08/01 05:09:58;;;;;;;2.67;2.47;;;;;;;20.16;62.93;100619.66;5065251;28;20479;-27
2022/08/01 05:12:24;;;;;;;2.00;1.90;;;;;;;20.20;62.31;100618.56;5071273;28;20024;-28
2022/08/01 05:14:49;;;;;;;2.50;2.30;;;;;;;20.21;62.66;100613.13;5070844;28;20029;-28
2022/08/01 05:17:14;;;;;;;2.75;2.00;;;;;;;20.23;63.68;100624.66;5070737;28;20032;-28
2022/08/01 05:19:40;;;;;;;2.42;2.22;;;;;;;20.27;62.97;100621.81;5052942;28;20012;-28
2022/08/01 05:22:07;;;;;;;2.42;2.22;;;;;;;20.29;63.20;100614.56;5070954;28;20028;-27
2022/08/01 05:24:35;;;;;;;2.05;1.88;;;;;;;20.31;63.28;100618.03;5070457;28;20115;-28
2022/08/01 05:27:00;;;;;;;2.50;2.20;;;;;;;20.33;63.55;100624.16;5070828;28;20021;-28
2022/08/01 05:29:26;;;;;;;2.50;2.30;;;;;;;20.33;63.90;100616.13;5071152;28;20078;-28
2022/08/01 05:31:52;;;;;;;2.45;2.25;;;;;;;20.37;63.97;100623.94;5071035;28;20602;-28
2022/08/01 05:34:17;;;;;;;2.80;2.20;;;;;;;20.41;63.84;100624.66;5070098;28;20468;-28
2022/08/01 05:36:43;;;;;;;2.30;2.10;;;;;;;20.42;63.90;100620.16;5071032;28;20035;-28
2022/08/01 05:39:08;;;;;;;2.20;2.10;;;;;;;20.46;63.70;100627.09;5053090;28;20028;-28
2022/08/01 05:41:36;;;;;;;2.42;2.20;;;;;;;20.50;65.25;100620.63;5067153;28;20035;-28
2022/08/01 05:44:02;;;;;;;1.98;1.88;;;;;;;20.51;64.79;100627.72;5068923;28;20020;-28
2022/08/01 05:46:30;;;;;;;3.08;2.08;;;;;;;20.53;64.78;100619.63;5072692;28;20021;-28
2022/08/01 05:48:55;;;;;;;2.15;2.05;;;;;;;20.56;64.20;100623.00;5074287;28;20064;-28
2022/08/01 05:51:21;;;;;;;2.95;2.10;;;;;;;20.58;64.55;100626.44;5055836;28;20052;-28
2022/08/01 05:53:47;;;;;;;2.10;2.00;;;;;;;20.62;64.67;100633.41;5074208;28;20024;-28
2022/08/01 05:56:12;;;;;;;2.83;2.10;;;;;;;20.61;64.68;100626.28;5074204;28;20056;-28
2022/08/01 05:58:37;;;;;;;2.33;2.17;;;;;;;20.64;65.01;100622.56;5072545;28;20028;-28
2022/08/01 06:01:03;;;;;;;2.17;1.98;;;;;;;20.66;64.20;100627.84;5072700;28;20111;-28
2022/08/01 06:03:31;;;;;;;2.30;2.10;;;;;;;20.66;65.83;100626.06;5071660;28;20115;-28
2022/08/01 06:05:56;;;;;;;1.90;1.80;;;;;;;20.67;66.13;100627.78;5054336;28;20036;-28
2022/08/01 06:08:22;;;;;;;2.40;2.20;;;;;;;20.71;65.21;100633.84;5069677;28;20028;-28
2022/08/01 06:10:47;;;;;;;2.85;1.90;;;;;;;20.74;65.36;100639.91;5055100;28;20021;-28
2022/08/01 06:13:13;;;;;;;4.05;2.13;;;;;;;20.81;66.57;100636.91;5070929;28;20118;-28
2022/08/01 06:15:38;;;;;;;1.83;1.73;;;;;;;20.83;65.31;100638.56;5070473;28;20099;-28
2022/08/01 06:18:04;;;;;;;2.13;1.80;;;;;;;20.87;65.08;100644.59;5072145;28;20020;-28
2022/08/01 06:20:30;;;;;;;1.73;1.55;;;;;;;20.88;64.72;100639.19;5072551;28;20032;-27
2022/08/01 06:22:55;;;;;;;1.70;1.60;;;;;;;20.93;66.42;100644.31;5054821;28;20142;-28
2022/08/01 06:25:20;;;;;;;2.08;1.88;;;;;;;20.96;66.22;100645.97;5069298;28;20476;-28
2022/08/01 06:27:46;;;;;;;2.00;1.90;;;;;;;20.98;65.30;100646.78;5073840;28;20388;-28
2022/08/01 06:30:11;;;;;;;2.55;2.30;;;;;;;20.98;66.10;100654.81;5072751;28;20388;-28
2022/08/01 06:32:37;;;;;;;2.80;1.70;;;;;;;20.96;69.19;100662.06;5048508;28;20059;-27
2022/08/01 06:35:02;;;;;;;2.10;1.90;;;;;;;20.93;69.64;100668.44;5073482;28;20089;-28
2022/08/01 06:37:31;;;;;;;2.17;1.98;;;;;;;20.90;69.23;100679.34;5065749;28;20099;-28
2022/08/01 06:40:03;;;;;;;1.83;1.73;;;;;;;20.90;70.00;100679.34;5052890;28;20058;-28
2022/08/01 06:42:31;;;;;;;1.50;1.40;;;;;;;20.89;68.66;100667.75;5054117;28;20033;-28
2022/08/01 06:44:57;;;;;;;2.15;1.25;;;;;;;20.92;68.42;100676.56;5064862;28;20368;-28
2022/08/01 06:47:22;;;;;;;2.38;1.30;;;;;;;20.92;68.31;100681.94;5064295;28;20039;-28
2022/08/01 06:49:47;;;;;;;3.55;1.65;;;;;;;20.92;67.77;100688.19;5068062;28;20032;-28
2022/08/01 06:52:13;;;;;;;1.23;1.13;;;;;;;20.95;68.24;100687.13;5046044;28;20031;-28
2022/08/01 06:54:38;;;;;;;1.40;1.20;;;;;;;20.95;68.70;100693.38;5068708;28;20024;-27
2022/08/01 06:57:06;;;;;;;1.50;1.27;;;;;;;20.94;69.46;100691.63;5069287;28;20537;-28
2022/08/01 06:59:32;;;;;;;0.90;0.90;;;;;;;20.97;69.03;100693.31;5066810;28;20032;-27
2022/08/01 07:01:57;;;;;;;2.25;1.30;;;;;;;20.98;69.98;100692.34;5053318;28;20024;-28
2022/08/01 07:04:22;;;;;;;2.53;1.02;;;;;;;20.99;69.10;100694.06;5066977;28;20170;-28
2022/08/01 07:06:48;;;;;;;0.95;0.95;;;;;;;21.01;69.17;100692.19;5073041;28;20033;-28
2022/08/01 07:09:13;;;;;;;1.20;1.10;;;;;;;21.02;70.04;100693.91;5071208;28;20035;-28
2022/08/01 07:11:39;;;;;;;0.80;0.80;;;;;;;21.05;70.63;100695.56;5053111;28;20052;-28
2022/08/01 07:14:04;;;;;;;2.55;1.20;;;;;;;21.07;70.80;100691.00;5045522;28;20028;-28
2022/08/01 07:16:29;;;;;;;3.40;1.10;;;;;;;21.08;71.12;100693.59;5069859;28;20020;-28
2022/08/01 07:18:54;;;;;;;1.30;1.20;;;;;;;21.14;70.99;100693.25;5072730;28;20033;-28
2022/08/01 07:21:20;;;;;;;1.30;1.20;;;;;;;21.20;70.61;100691.22;5072958;28;20032;-28
2022/08/01 07:23:45;;;;;;;1.52;1.30;;;;;;;21.24;70.22;100687.41;5054322;28;20486;-28
2022/08/01 07:26:10;;;;;;;1.30;1.20;;;;;;;21.31;70.62;100696.88;5071374;28;20139;-28
2022/08/01 07:28:36;;;;;;;1.67;1.58;;;;;;;21.37;69.96;100688.47;5068209;28;20025;-28
2022/08/01 07:31:01;;;;;;;2.58;1.50;;;;;;;21.43;70.24;100689.94;5064751;28;20470;-26
2022/08/01 07:33:27;;;;;;;1.83;1.25;;;;;;;21.48;69.96;100682.50;5046961;28;20054;-28
2022/08/01 07:35:52;;;;;;;1.45;1.35;;;;;;;21.53;70.57;100682.25;5058134;28;20033;-28
2022/08/01 07:38:17;;;;;;;1.58;1.48;;;;;;;21.59;69.67;100691.78;5063460;28;20028;-27
2022/08/01 07:40:44;;;;;;;1.25;1.15;;;;;;;21.65;69.51;100692.28;5072290;28;20032;-28
2022/08/01 07:43:09;;;;;;;1.27;1.17;;;;;;;21.71;69.02;100692.94;5068272;28;20028;-26
2022/08/01 07:45:35;;;;;;;2.28;1.15;;;;;;;21.77;69.36;100692.59;5063845;28;21814;-27
2022/08/01 07:48:05;;;;;;;2.08;1.60;;;;;;;21.86;69.08;100697.47;5063600;28;20040;-27
2022/08/01 07:50:30;;;;;;;1.08;0.98;;;;;;;21.94;69.13;100696.16;5068048;28;20287;-28
2022/08/01 07:52:55;;;;;;;1.30;1.20;;;;;;;22.04;68.49;100697.38;5065649;28;20373;-28
2022/08/01 07:55:21;;;;;;;2.03;1.20;;;;;;;22.13;67.95;100706.69;5062639;28;20110;-28
2022/08/01 07:57:46;;;;;;;0.80;0.80;;;;;;;22.16;67.67;100715.47;5069627;28;20067;-28
2022/08/01 08:00:12;;;;;;;0.77;0.77;;;;;;;22.25;67.99;100715.88;5069342;28;20985;-28
2022/08/01 08:02:38;;;;;;;0.88;0.88;;;;;;;22.28;67.29;100731.81;5070173;28;20020;-27
2022/08/01 08:05:04;;;;;;;1.77;0.77;;;;;;;22.29;67.59;100728.19;5062999;28;20077;-28
2022/08/01 08:07:30;;;;;;;1.00;0.80;;;;;;;22.33;66.99;100726.16;5067583;28;20496;-28
2022/08/01 08:09:55;;;;;;;1.48;0.73;;;;;;;22.38;67.10;100732.16;5063845;28;20031;-28
2022/08/01 08:12:21;;;;;;;0.82;0.50;;;;;;;22.38;67.11;100727.63;5064242;28;20036;-28
2022/08/01 08:14:46;;;;;;;0.63;0.52;;;;;;;22.39;67.29;100720.44;5072267;28;20028;-28
2022/08/01 08:17:12;;;;;;;0.93;0.77;;;;;;;22.42;66.78;100725.66;5068025;28;20325;-28
2022/08/01 08:19:38;;;;;;;0.70;0.57;;;;;;;22.41;67.52;100732.81;5067385;28;20025;-28
2022/08/01 08:22:05;;;;;;;1.67;0.68;;;;;;;22.47;67.20;100736.13;5069356;28;20060;-28
2022/08/01 08:24:30;;;;;;;0.70;0.70;;;;;;;22.49;66.86;100734.19;5070248;28;20032;-28
2022/08/01 08:26:58;;;;;;;0.70;0.60;;;;;;;22.54;66.94;100737.50;5070176;28;20513;-28
2022/08/01 08:29:24;;;;;;;1.10;0.63;;;;;;;22.54;66.99;100742.88;5064529;28;20040;-27
2022/08/01 08:31:50;;;;;;;0.82;0.82;;;;;;;22.57;67.22;100736.47;5065362;28;20099;-28
2022/08/01 08:34:16;;;;;;;2.53;0.68;;;;;;;22.60;67.02;100742.53;5066426;28;20422;-27
2022/08/01 08:36:41;;;;;;;1.85;1.00;;;;;;;22.62;67.58;100737.06;5067741;28;20044;-27
2022/08/01 08:39:07;;;;;;;0.80;0.80;;;;;;;22.72;66.94;100737.38;5042165;28;20108;-27
2022/08/01 08:41:36;;;;;;;1.25;0.73;;;;;;;22.81;66.54;100743.06;5067004;28;20027;-27
2022/08/01 08:44:05;;;;;;;1.65;0.90;;;;;;;22.89;66.12;100737.25;5068406;28;20051;-28
2022/08/01 08:46:34;;;;;;;0.90;0.90;;;;;;;22.94;65.90;100737.81;5069615;28;20569;-27
2022/08/01 08:49:01;;;;;;;1.52;0.80;;;;;;;22.98;65.62;100738.53;5068472;28;20070;-27
2022/08/01 08:51:27;;;;;;;0.98;0.85;;;;;;;23.04;65.65;100739.97;5067766;28;20116;-28
2022/08/01 08:53:56;;;;;;;0.98;0.82;;;;;;;23.10;65.70;100750.34;5049772;28;20078;-28
2022/08/01 08:56:23;;;;;;;0.80;0.80;;;;;;;23.16;65.41;100749.97;5049157;28;20036;-27
2022/08/01 08:58:48;;;;;;;0.57;0.57;;;;;;;23.22;65.21;100742.47;5032527;28;20112;-28
2022/08/01 09:01:14;;;;;;;0.73;0.73;;;;;;;23.28;64.84;100744.78;5055909;28;20111;-27
2022/08/01 09:03:40;;;;;;;0.80;0.80;;;;;;;23.32;64.17;100738.25;5064297;28;20063;-28
2022/08/01 09:06:06;;;;;;;0.85;0.85;;;;;;;23.35;64.24;100751.56;5044912;28;20070;-28
2022/08/01 09:08:32;;;;;;;1.60;1.50;;;;;;;23.40;64.30;100756.63;5071384;28;20115;-28
2022/08/01 09:10:58;;;;;;;1.40;1.30;;;;;;;23.45;63.76;100755.38;5071288;28;20025;-27
2022/08/01 09:13:23;;;;;;;1.67;1.58;;;;;;;23.50;63.77;100754.25;5052013;28;20442;-27
2022/08/01 09:15:59;;;;;;;1.50;1.40;;;;;;;23.53;63.44;100757.63;5068766;28;20056;-27
2022/08/01 09:18:33;;;;;;;1.50;1.40;;;;;;;23.57;62.95;100748.38;5068420;28;20389;-27
2022/08/01 09:21:20;;;;;;;2.17;1.98;;;;;;;23.58;62.58;100749.25;5071040;28;20095;-27
2022/08/01 09:23:54;;;;;;;2.22;2.00;;;;;;;23.58;62.66;100741.19;5073794;28;20032;-27
2022/08/01 09:26:29;;;;;;;2.10;2.00;;;;;;;23.67;62.67;100747.78;5069865;28;20057;-27
2022/08/01 09:28:54;;;;;;;2.60;2.40;;;;;;;23.68;62.28;100745.00;5048417;28;20395;-27
2022/08/01 09:31:20;;;;;;;2.40;2.20;;;;;;;23.73;62.01;100751.91;5056770;28;20021;-27
2022/08/01 09:34:03;;;;;;;3.33;2.15;;;;;;;23.86;62.06;100752.00;5072033;28;20033;-27
2022/08/01 09:36:51;;;;;;;2.90;2.70;;;;;;;23.91;61.28;100760.66;5068801;28;20021;-27
2022/08/01 09:39:17;;;;;;;3.28;2.70;;;;;;;23.98;61.21;100769.22;5057212;28;20103;-27
2022/08/01 09:41:42;;;;;;;3.10;2.80;;;;;;;24.06;61.09;100774.94;5067251;28;20056;-28
2022/08/01 09:44:08;;;;;;;4.15;2.75;;;;;;;24.13;61.01;100770.94;5068210;28;20471;-27
2022/08/01 09:46:33;;;;;;;3.08;2.88;;;;;;;24.17;60.56;100767.06;5070193;28;20500;-27
2022/08/01 09:49:01;;;;;;;3.15;2.88;;;;;;;24.19;60.50;100770.53;5068905;28;20099;-27
2022/08/01 09:51:35;;;;;;;3.47;3.17;;;;;;;24.23;60.35;100775.75;5074350;28;20028;-28
2022/08/01 09:54:04;;;;;;;3.83;3.15;;;;;;;24.26;60.24;100770.13;5040687;28;20027;-28
2022/08/01 09:56:41;;;;;;;3.33;3.03;;;;;;;24.25;59.69;100771.97;5074382;28;20032;-28
2022/08/01 09:59:06;;;;;;;3.45;3.10;;;;;;;24.29;60.29;100784.28;5074602;28;20016;-28
2022/08/01 10:01:49;;;;;;;2.90;2.70;;;;;;;24.30;60.06;100775.22;5055639;28;20103;-27
2022/08/01 10:04:16;;;;;;;3.08;2.88;;;;;;;24.32;60.03;100777.81;5047423;28;20017;-27
2022/08/01 10:06:44;;;;;;;3.15;2.85;;;;;;;24.34;60.24;100770.50;5066811;28;20536;-27
2022/08/01 10:09:11;;;;;;;2.90;2.70;;;;;;;24.40;60.38;100767.38;5071188;28;20043;-27
2022/08/01 10:11:38;;;;;;;3.15;2.55;;;;;;;24.48;59.86;100772.28;5056209;28;20017;-28
2022/08/01 10:14:04;;;;;;;2.38;2.17;;;;;;;24.53;59.66;100771.94;5056549;28;20028;-27
2022/08/01 10:16:30;;;;;;;2.38;2.17;;;;;;;24.59;59.31;100780.50;5046267;28;20377;-27
2022/08/01 10:18:56;;;;;;;2.33;1.73;;;;;;;24.62;58.75;100775.88;5059056;28;20077;-28
2022/08/01 10:21:22;;;;;;;1.52;1.42;;;;;;;24.66;59.35;100774.69;5054381;28;20036;-27
2022/08/01 10:23:48;;;;;;;1.75;1.65;;;;;;;24.70;59.36;100769.00;5072271;28;20632;-28
2022/08/01 10:26:14;;;;;;;2.00;1.80;;;;;;;24.76;59.13;100769.53;5037788;28;20060;-28
2022/08/01 10:28:40;;;;;;;1.27;1.17;;;;;;;24.80;58.88;100773.75;5064175;28;20072;-28
2022/08/01 10:31:07;;;;;;;1.52;1.33;;;;;;;24.83;58.95;100763.63;5070430;28;20020;-28
2022/08/01 10:33:33;;;;;;;1.55;1.45;;;;;;;24.91;59.04;100764.97;5054667;28;20024;-27
2022/08/01 10:35:58;;;;;;;1.52;1.42;;;;;;;24.96;59.22;100763.69;5049844;28;20492;-28
2022/08/01 10:38:24;;;;;;;1.83;1.40;;;;;;;25.02;59.17;100764.22;5050050;28;20025;-28
2022/08/01 10:40:51;;;;;;;1.63;1.30;;;;;;;25.04;58.54;100771.25;5051800;28;20039;-28
2022/08/01 10:43:16;;;;;;;1.25;1.15;;;;;;;25.07;58.30;100775.59;5071755;28;20033;-28
2022/08/01 10:45:43;;;;;;;1.55;1.30;;;;;;;25.12;58.13;100778.81;5042883;28;20113;-27
2022/08/01 10:48:32;;;;;;;1.60;1.50;;;;;;;25.18;58.52;100772.97;5073120;28;20031;-28
2022/08/01 10:51:01;;;;;;;1.77;1.67;;;;;;;25.20;58.10;100773.75;5072816;28;20036;-27
2022/08/01 10:53:27;;;;;;;1.88;1.50;;;;;;;25.22;58.06;100779.91;5072975;28;20523;-28
2022/08/01 10:56:00;;;;;;;1.85;1.70;;;;;;;25.27;57.90;100781.41;5072935;28;20043;-27
2022/08/01 10:58:26;;;;;;;2.45;1.88;;;;;;;25.31;57.99;100777.53;5064739;28;20268;-27
2022/08/01 11:01:16;;;;;;;2.45;1.88;;;;;;;25.30;57.56;100775.78;5058730;28;20029;-28
2022/08/01 11:03:54;;;;;;;2.05;1.88;;;;;;;25.28;58.11;100793.94;5060370;28;20564;-27
2022/08/01 11:06:44;;;;;;;2.10;2.00;;;;;;;25.28;57.93;100777.75;5067861;28;20052;-27
2022/08/01 11:09:13;;;;;;;2.17;2.08;;;;;;;25.30;57.92;100775.78;5060240;28;20056;-27
2022/08/01 11:12:16;;;;;;;2.38;2.17;;;;;;;25.29;58.18;100774.94;5053202;28;20119;-27
2022/08/01 11:15:00;;;;;;;2.28;2.17;;;;;;;25.33;58.33;100783.66;5011336;28;20031;-28
2022/08/01 11:17:36;;;;;;;2.33;2.13;;;;;;;25.36;58.44;100773.53;5071108;28;20028;-28
2022/08/01 11:20:15;;;;;;;2.15;2.05;;;;;;;25.38;57.78;100776.13;5071187;28;20032;-27
2022/08/01 11:23:05;;;;;;;4.83;2.40;;;;;;;25.44;58.38;100774.84;5052812;28;20545;-27
2022/08/01 11:25:33;;;;;;;2.15;2.05;;;;;;;25.50;58.18;100767.16;5066850;28;20473;-27
2022/08/01 11:28:13;;;;;;;1.98;1.88;;;;;;;25.59;58.21;100787.28;5066051;28;20025;-27